sensor_id;sensor_type;location;lat;lon;timestamp;P1;durP1;ratioP1;P2;durP2;ratioP2
55710;SDS011;41612;51.994;5.880;2023-06-14T00:00:20;3.40;;;2.33;;
55710;SDS011;41612;51.994;5.880;2023-06-14T00:02:46;4.15;;;2.55;;
55710;SDS011;41612;51.994;5.880;2023-06-14T00:05:12;4.65;;;2.58;;
55710;SDS011;41612;51.994;5.880;2023-06-14T00:07:40;4.07;;;2.72;;
55710;SDS011;41612;51.994;5.880;2023-06-14T00:10:10;4.18;;;2.60;;
55710;SDS011;41612;51.994;5.880;2023-06-14T00:12:39;4.03;;;2.53;;
55710;SDS011;41612;51.994;5.880;2023-06-14T00:15:05;4.13;;;2.63;;
55710;SDS011;41612;51.994;5.880;2023-06-14T00:17:34;3.63;;;2.35;;
55710;SDS011;41612;51.994;5.880;2023-06-14T00:20:02;3.97;;;2.50;;
55710;SDS011;41612;51.994;5.880;2023-06-14T00:22:31;4.13;;;2.63;;
55710;SDS011;41612;51.994;5.880;2023-06-14T00:24:58;3.58;;;2.45;;
55710;SDS011;41612;51.994;5.880;2023-06-14T00:27:24;3.78;;;2.50;;
55710;SDS011;41612;51.994;5.880;2023-06-14T00:29:50;4.03;;;2.50;;
55710;SDS011;41612;51.994;5.880;2023-06-14T00:32:18;4.15;;;2.40;;
55710;SDS011;41612;51.994;5.880;2023-06-14T00:34:44;3.97;;;2.28;;
55710;SDS011;41612;51.994;5.880;2023-06-14T00:37:10;3.70;;;2.33;;
55710;SDS011;41612;51.994;5.880;2023-06-14T00:39:36;4.80;;;2.60;;
55710;SDS011;41612;51.994;5.880;2023-06-14T00:42:01;4.18;;;2.40;;
55710;SDS011;41612;51.994;5.880;2023-06-14T00:44:27;5.40;;;2.60;;
55710;SDS011;41612;51.994;5.880;2023-06-14T00:46:53;4.47;;;2.60;;
55710;SDS011;41612;51.994;5.880;2023-06-14T00:49:22;3.72;;;2.22;;
55710;SDS011;41612;51.994;5.880;2023-06-14T00:51:48;5.13;;;2.97;;
55710;SDS011;41612;51.994;5.880;2023-06-14T00:54:14;4.53;;;2.42;;
55710;SDS011;41612;51.994;5.880;2023-06-14T00:56:42;3.90;;;2.53;;
55710;SDS011;41612;51.994;5.880;2023-06-14T00:59:11;4.18;;;2.55;;
55710;SDS011;41612;51.994;5.880;2023-06-14T01:01:36;6.72;;;3.00;;
55710;SDS011;41612;51.994;5.880;2023-06-14T01:04:03;4.38;;;2.60;;
55710;SDS011;41612;51.994;5.880;2023-06-14T01:06:35;7.55;;;2.65;;
55710;SDS011;41612;51.994;5.880;2023-06-14T01:09:18;5.15;;;2.55;;
55710;SDS011;41612;51.994;5.880;2023-06-14T01:12:24;6.15;;;2.38;;
55710;SDS011;41612;51.994;5.880;2023-06-14T01:15:00;4.03;;;2.72;;
55710;SDS011;41612;51.994;5.880;2023-06-14T01:17:27;4.32;;;2.63;;
55710;SDS011;41612;51.994;5.880;2023-06-14T01:19:57;3.47;;;2.38;;
55710;SDS011;41612;51.994;5.880;2023-06-14T01:22:26;7.45;;;4.15;;
55710;SDS011;41612;51.994;5.880;2023-06-14T01:24:54;7.28;;;2.85;;
55710;SDS011;41612;51.994;5.880;2023-06-14T01:27:23;4.13;;;2.70;;
55710;SDS011;41612;51.994;5.880;2023-06-14T01:29:54;4.78;;;2.55;;
55710;SDS011;41612;51.994;5.880;2023-06-14T01:32:22;3.85;;;2.38;;
55710;SDS011;41612;51.994;5.880;2023-06-14T01:34:54;4.18;;;2.58;;
55710;SDS011;41612;51.994;5.880;2023-06-14T01:37:20;3.38;;;2.47;;
55710;SDS011;41612;51.994;5.880;2023-06-14T01:39:47;5.95;;;2.30;;
55710;SDS011;41612;51.994;5.880;2023-06-14T01:42:18;3.65;;;2.53;;
55710;SDS011;41612;51.994;5.880;2023-06-14T01:44:44;5.72;;;1.98;;
55710;SDS011;41612;51.994;5.880;2023-06-14T01:47:11;4.57;;;2.58;;
55710;SDS011;41612;51.994;5.880;2023-06-14T01:49:38;4.22;;;2.00;;
55710;SDS011;41612;51.994;5.880;2023-06-14T01:52:04;5.57;;;2.67;;
55710;SDS011;41612;51.994;5.880;2023-06-14T01:54:31;3.40;;;2.13;;
55710;SDS011;41612;51.994;5.880;2023-06-14T01:56:57;5.70;;;2.40;;
55710;SDS011;41612;51.994;5.880;2023-06-14T01:59:22;5.22;;;2.45;;
55710;SDS011;41612;51.994;5.880;2023-06-14T02:01:48;3.45;;;1.90;;
55710;SDS011;41612;51.994;5.880;2023-06-14T02:04:14;5.40;;;2.40;;
55710;SDS011;41612;51.994;5.880;2023-06-14T02:06:39;5.75;;;2.83;;
55710;SDS011;41612;51.994;5.880;2023-06-14T02:09:05;5.75;;;2.85;;
55710;SDS011;41612;51.994;5.880;2023-06-14T02:11:31;5.15;;;2.22;;
55710;SDS011;41612;51.994;5.880;2023-06-14T02:13:57;4.43;;;2.42;;
55710;SDS011;41612;51.994;5.880;2023-06-14T02:16:25;21.95;;;5.40;;
55710;SDS011;41612;51.994;5.880;2023-06-14T02:18:53;3.95;;;1.90;;
55710;SDS011;41612;51.994;5.880;2023-06-14T02:21:18;4.97;;;2.55;;
55710;SDS011;41612;51.994;5.880;2023-06-14T02:23:45;4.30;;;2.50;;
55710;SDS011;41612;51.994;5.880;2023-06-14T02:26:11;4.85;;;2.22;;
55710;SDS011;41612;51.994;5.880;2023-06-14T02:28:36;5.70;;;2.28;;
55710;SDS011;41612;51.994;5.880;2023-06-14T02:31:02;3.78;;;2.10;;
55710;SDS011;41612;51.994;5.880;2023-06-14T02:33:28;3.85;;;2.20;;
55710;SDS011;41612;51.994;5.880;2023-06-14T02:35:53;4.95;;;2.85;;
55710;SDS011;41612;51.994;5.880;2023-06-14T02:38:19;3.72;;;2.25;;
55710;SDS011;41612;51.994;5.880;2023-06-14T02:40:47;3.60;;;2.25;;
55710;SDS011;41612;51.994;5.880;2023-06-14T02:43:13;3.50;;;2.20;;
55710;SDS011;41612;51.994;5.880;2023-06-14T02:45:39;5.22;;;2.10;;
55710;SDS011;41612;51.994;5.880;2023-06-14T02:48:05;4.35;;;2.00;;
55710;SDS011;41612;51.994;5.880;2023-06-14T02:50:32;5.22;;;2.40;;
55710;SDS011;41612;51.994;5.880;2023-06-14T02:52:58;4.95;;;2.63;;
55710;SDS011;41612;51.994;5.880;2023-06-14T02:55:26;4.35;;;2.03;;
55710;SDS011;41612;51.994;5.880;2023-06-14T02:57:52;5.88;;;2.30;;
55710;SDS011;41612;51.994;5.880;2023-06-14T03:00:19;5.57;;;2.55;;
55710;SDS011;41612;51.994;5.880;2023-06-14T03:02:46;6.13;;;2.70;;
55710;SDS011;41612;51.994;5.880;2023-06-14T03:05:12;3.63;;;2.22;;
55710;SDS011;41612;51.994;5.880;2023-06-14T03:07:40;3.33;;;2.17;;
55710;SDS011;41612;51.994;5.880;2023-06-14T03:10:10;5.38;;;2.58;;
55710;SDS011;41612;51.994;5.880;2023-06-14T03:12:39;3.70;;;2.30;;
55710;SDS011;41612;51.994;5.880;2023-06-14T03:15:05;3.72;;;2.42;;
55710;SDS011;41612;51.994;5.880;2023-06-14T03:17:36;3.85;;;2.13;;
55710;SDS011;41612;51.994;5.880;2023-06-14T03:20:04;4.10;;;3.03;;
55710;SDS011;41612;51.994;5.880;2023-06-14T03:22:31;3.85;;;2.20;;
55710;SDS011;41612;51.994;5.880;2023-06-14T03:24:59;4.82;;;2.00;;
55710;SDS011;41612;51.994;5.880;2023-06-14T03:27:26;3.70;;;2.25;;
55710;SDS011;41612;51.994;5.880;2023-06-14T03:29:54;3.42;;;2.40;;
55710;SDS011;41612;51.994;5.880;2023-06-14T03:32:20;4.80;;;2.33;;
55710;SDS011;41612;51.994;5.880;2023-06-14T03:34:46;4.63;;;1.90;;
55710;SDS011;41612;51.994;5.880;2023-06-14T03:37:17;5.50;;;2.10;;
55710;SDS011;41612;51.994;5.880;2023-06-14T03:39:44;4.80;;;2.53;;
55710;SDS011;41612;51.994;5.880;2023-06-14T03:42:14;3.72;;;2.45;;
55710;SDS011;41612;51.994;5.880;2023-06-14T03:44:43;4.47;;;2.25;;
55710;SDS011;41612;51.994;5.880;2023-06-14T03:47:09;2.92;;;1.90;;
55710;SDS011;41612;51.994;5.880;2023-06-14T03:49:35;3.78;;;2.47;;
55710;SDS011;41612;51.994;5.880;2023-06-14T03:52:02;2.67;;;1.88;;
55710;SDS011;41612;51.994;5.880;2023-06-14T03:54:29;5.25;;;2.25;;
55710;SDS011;41612;51.994;5.880;2023-06-14T03:56:57;6.40;;;2.60;;
55710;SDS011;41612;51.994;5.880;2023-06-14T03:59:24;4.25;;;2.35;;
55710;SDS011;41612;51.994;5.880;2023-06-14T04:01:51;6.10;;;2.55;;
55710;SDS011;41612;51.994;5.880;2023-06-14T04:04:18;5.60;;;2.28;;
55710;SDS011;41612;51.994;5.880;2023-06-14T04:06:46;3.47;;;2.45;;
55710;SDS011;41612;51.994;5.880;2023-06-14T04:09:13;4.20;;;2.08;;
55710;SDS011;41612;51.994;5.880;2023-06-14T04:11:40;4.68;;;2.63;;
55710;SDS011;41612;51.994;5.880;2023-06-14T04:14:06;4.18;;;2.30;;
55710;SDS011;41612;51.994;5.880;2023-06-14T05:39:01;3.25;;;2.05;;
55710;SDS011;41612;51.994;5.880;2023-06-14T05:41:28;4.47;;;2.80;;
55710;SDS011;41612;51.994;5.880;2023-06-14T05:43:55;4.13;;;2.40;;
55710;SDS011;41612;51.994;5.880;2023-06-14T05:46:21;3.78;;;2.20;;
55710;SDS011;41612;51.994;5.880;2023-06-14T05:48:54;4.35;;;2.10;;
55710;SDS011;41612;51.994;5.880;2023-06-14T05:51:20;5.15;;;2.42;;
55710;SDS011;41612;51.994;5.880;2023-06-14T05:53:47;4.47;;;1.95;;
55710;SDS011;41612;51.994;5.880;2023-06-14T05:56:17;4.45;;;1.98;;
55710;SDS011;41612;51.994;5.880;2023-06-14T05:58:43;5.00;;;1.88;;
55710;SDS011;41612;51.994;5.880;2023-06-14T06:01:10;3.55;;;2.38;;
55710;SDS011;41612;51.994;5.880;2023-06-14T06:03:36;3.75;;;2.20;;
55710;SDS011;41612;51.994;5.880;2023-06-14T06:06:02;3.63;;;1.90;;
55710;SDS011;41612;51.994;5.880;2023-06-14T06:08:28;4.00;;;1.98;;
55710;SDS011;41612;51.994;5.880;2023-06-14T06:10:54;3.05;;;2.42;;
55710;SDS011;41612;51.994;5.880;2023-06-14T06:13:21;3.20;;;2.03;;
55710;SDS011;41612;51.994;5.880;2023-06-14T06:15:47;4.85;;;2.50;;
55710;SDS011;41612;51.994;5.880;2023-06-14T06:18:13;32.13;;;4.30;;
55710;SDS011;41612;51.994;5.880;2023-06-14T15:49:01;1.73;;;0.82;;
55710;SDS011;41612;51.994;5.880;2023-06-14T15:51:34;1.58;;;0.85;;
55710;SDS011;41612;51.994;5.880;2023-06-14T15:53:59;2.50;;;0.90;;
55710;SDS011;41612;51.994;5.880;2023-06-14T15:56:25;1.98;;;0.70;;
55710;SDS011;41612;51.994;5.880;2023-06-14T15:58:51;2.22;;;0.90;;
55710;SDS011;41612;51.994;5.880;2023-06-14T16:01:16;3.55;;;1.05;;
55710;SDS011;41612;51.994;5.880;2023-06-14T16:03:42;1.85;;;0.90;;
55710;SDS011;41612;51.994;5.880;2023-06-14T16:06:08;1.92;;;0.90;;
55710;SDS011;41612;51.994;5.880;2023-06-14T16:08:33;1.83;;;1.02;;
55710;SDS011;41612;51.994;5.880;2023-06-14T16:10:59;1.35;;;0.80;;
55710;SDS011;41612;51.994;5.880;2023-06-14T16:13:25;3.53;;;0.90;;
55710;SDS011;41612;51.994;5.880;2023-06-14T16:15:50;2.20;;;1.00;;
55710;SDS011;41612;51.994;5.880;2023-06-14T16:18:16;1.85;;;1.02;;
55710;SDS011;41612;51.994;5.880;2023-06-14T16:20:42;3.08;;;0.90;;
55710;SDS011;41612;51.994;5.880;2023-06-14T16:23:08;1.73;;;0.93;;
55710;SDS011;41612;51.994;5.880;2023-06-14T16:25:36;1.95;;;1.10;;
55710;SDS011;41612;51.994;5.880;2023-06-14T16:28:02;4.57;;;1.05;;
55710;SDS011;41612;51.994;5.880;2023-06-14T16:30:28;2.15;;;1.20;;
55710;SDS011;41612;51.994;5.880;2023-06-14T16:32:53;4.15;;;1.30;;
55710;SDS011;41612;51.994;5.880;2023-06-14T16:35:19;2.10;;;1.20;;
55710;SDS011;41612;51.994;5.880;2023-06-14T16:37:45;5.18;;;1.00;;
55710;SDS011;41612;51.994;5.880;2023-06-14T16:40:11;2.25;;;1.13;;
55710;SDS011;41612;51.994;5.880;2023-06-14T16:42:36;2.17;;;1.10;;
55710;SDS011;41612;51.994;5.880;2023-06-14T16:45:02;3.42;;;1.30;;
55710;SDS011;41612;51.994;5.880;2023-06-14T16:47:28;3.60;;;1.30;;
55710;SDS011;41612;51.994;5.880;2023-06-14T16:49:54;2.45;;;0.90;;
55710;SDS011;41612;51.994;5.880;2023-06-14T16:52:19;1.90;;;0.95;;
55710;SDS011;41612;51.994;5.880;2023-06-14T16:54:45;2.63;;;1.20;;
55710;SDS011;41612;51.994;5.880;2023-06-14T16:57:11;2.83;;;1.30;;
55710;SDS011;41612;51.994;5.880;2023-06-14T16:59:37;1.65;;;1.00;;
55710;SDS011;41612;51.994;5.880;2023-06-14T17:02:02;2.53;;;1.20;;
55710;SDS011;41612;51.994;5.880;2023-06-14T17:04:29;2.10;;;1.10;;
55710;SDS011;41612;51.994;5.880;2023-06-14T17:06:55;1.70;;;1.02;;
55710;SDS011;41612;51.994;5.880;2023-06-14T17:09:22;1.95;;;1.17;;
55710;SDS011;41612;51.994;5.880;2023-06-14T17:11:47;3.20;;;1.48;;
55710;SDS011;41612;51.994;5.880;2023-06-14T17:14:13;1.80;;;1.02;;
55710;SDS011;41612;51.994;5.880;2023-06-14T17:16:39;2.00;;;1.08;;
55710;SDS011;41612;51.994;5.880;2023-06-14T17:19:06;3.35;;;1.13;;
55710;SDS011;41612;51.994;5.880;2023-06-14T17:21:32;3.22;;;1.23;;
55710;SDS011;41612;51.994;5.880;2023-06-14T17:23:57;2.92;;;1.25;;
55710;SDS011;41612;51.994;5.880;2023-06-14T17:26:24;3.47;;;1.45;;
55710;SDS011;41612;51.994;5.880;2023-06-14T17:28:53;1.73;;;0.90;;
55710;SDS011;41612;51.994;5.880;2023-06-14T17:31:22;2.22;;;1.10;;
55710;SDS011;41612;51.994;5.880;2023-06-14T17:33:52;2.13;;;1.25;;
55710;SDS011;41612;51.994;5.880;2023-06-14T17:36:18;2.55;;;1.20;;
55710;SDS011;41612;51.994;5.880;2023-06-14T17:38:43;2.50;;;1.20;;
55710;SDS011;41612;51.994;5.880;2023-06-14T17:41:09;2.33;;;1.20;;
55710;SDS011;41612;51.994;5.880;2023-06-14T17:43:35;2.47;;;1.23;;
55710;SDS011;41612;51.994;5.880;2023-06-14T17:46:01;2.42;;;1.27;;
55710;SDS011;41612;51.994;5.880;2023-06-14T17:48:27;2.10;;;1.20;;
55710;SDS011;41612;51.994;5.880;2023-06-14T17:51:00;1.75;;;1.00;;
55710;SDS011;41612;51.994;5.880;2023-06-14T17:53:30;3.60;;;1.25;;
55710;SDS011;41612;51.994;5.880;2023-06-14T17:55:57;2.13;;;1.10;;
55710;SDS011;41612;51.994;5.880;2023-06-14T17:58:23;2.88;;;1.13;;
55710;SDS011;41612;51.994;5.880;2023-06-14T18:00:49;2.33;;;1.10;;
55710;SDS011;41612;51.994;5.880;2023-06-14T18:03:17;2.67;;;1.17;;
55710;SDS011;41612;51.994;5.880;2023-06-14T18:05:45;4.03;;;1.20;;
55710;SDS011;41612;51.994;5.880;2023-06-14T18:08:11;2.28;;;1.33;;
55710;SDS011;41612;51.994;5.880;2023-06-14T18:10:37;1.92;;;1.23;;
55710;SDS011;41612;51.994;5.880;2023-06-14T18:13:03;2.30;;;1.25;;
55710;SDS011;41612;51.994;5.880;2023-06-14T18:15:29;3.33;;;1.27;;
55710;SDS011;41612;51.994;5.880;2023-06-14T18:21:21;2.08;;;1.00;;
55710;SDS011;41612;51.994;5.880;2023-06-14T18:24:02;2.25;;;1.20;;
55710;SDS011;41612;51.994;5.880;2023-06-14T18:27:13;2.17;;;0.95;;
55710;SDS011;41612;51.994;5.880;2023-06-14T18:47:49;2.08;;;1.23;;
55710;SDS011;41612;51.994;5.880;2023-06-14T18:51:20;1.75;;;1.20;;
55710;SDS011;41612;51.994;5.880;2023-06-14T18:54:50;2.75;;;1.30;;
55710;SDS011;41612;51.994;5.880;2023-06-14T18:58:22;1.75;;;1.00;;
55710;SDS011;41612;51.994;5.880;2023-06-14T19:01:13;3.20;;;1.50;;
55710;SDS011;41612;51.994;5.880;2023-06-14T19:07:20;2.50;;;1.42;;
55710;SDS011;41612;51.994;5.880;2023-06-14T19:10:54;1.83;;;1.20;;
55710;SDS011;41612;51.994;5.880;2023-06-14T19:14:27;4.55;;;1.17;;
55710;SDS011;41612;51.994;5.880;2023-06-14T19:17:18;3.08;;;1.40;;
55710;SDS011;41612;51.994;5.880;2023-06-14T19:19:55;2.08;;;1.23;;
55710;SDS011;41612;51.994;5.880;2023-06-14T19:22:27;2.38;;;1.20;;
55710;SDS011;41612;51.994;5.880;2023-06-14T19:24:58;4.25;;;1.40;;
55710;SDS011;41612;51.994;5.880;2023-06-14T19:27:41;3.03;;;1.52;;
55710;SDS011;41612;51.994;5.880;2023-06-14T19:30:08;1.88;;;1.20;;
55710;SDS011;41612;51.994;5.880;2023-06-14T19:32:56;2.67;;;1.30;;
55710;SDS011;41612;51.994;5.880;2023-06-14T19:35:22;2.85;;;1.50;;
55710;SDS011;41612;51.994;5.880;2023-06-14T19:37:48;2.15;;;1.33;;
55710;SDS011;41612;51.994;5.880;2023-06-14T19:40:13;2.28;;;1.38;;
55710;SDS011;41612;51.994;5.880;2023-06-14T19:42:40;2.80;;;1.70;;
55710;SDS011;41612;51.994;5.880;2023-06-14T19:45:06;1.65;;;1.10;;
55710;SDS011;41612;51.994;5.880;2023-06-14T19:47:35;2.78;;;1.50;;
55710;SDS011;41612;51.994;5.880;2023-06-14T19:50:01;3.92;;;1.33;;
55710;SDS011;41612;51.994;5.880;2023-06-14T19:52:32;1.73;;;1.02;;
55710;SDS011;41612;51.994;5.880;2023-06-14T19:55:01;2.17;;;1.30;;
55710;SDS011;41612;51.994;5.880;2023-06-14T19:57:36;2.97;;;1.55;;
55710;SDS011;41612;51.994;5.880;2023-06-14T20:00:04;1.77;;;1.20;;
55710;SDS011;41612;51.994;5.880;2023-06-14T20:02:37;2.72;;;1.48;;
55710;SDS011;41612;51.994;5.880;2023-06-14T20:05:03;2.85;;;1.20;;
55710;SDS011;41612;51.994;5.880;2023-06-14T20:07:42;2.42;;;1.50;;
55710;SDS011;41612;51.994;5.880;2023-06-14T20:10:10;4.60;;;1.50;;
55710;SDS011;41612;51.994;5.880;2023-06-14T20:13:00;3.55;;;1.30;;
55710;SDS011;41612;51.994;5.880;2023-06-14T20:15:34;2.40;;;1.00;;
55710;SDS011;41612;51.994;5.880;2023-06-14T20:23:42;1.60;;;1.00;;
55710;SDS011;41612;51.994;5.880;2023-06-14T20:26:08;2.00;;;1.20;;
55710;SDS011;41612;51.994;5.880;2023-06-14T20:31:44;1.92;;;1.42;;
55710;SDS011;41612;51.994;5.880;2023-06-14T20:34:10;2.17;;;1.30;;
55710;SDS011;41612;51.994;5.880;2023-06-14T20:36:35;3.22;;;1.30;;
55710;SDS011;41612;51.994;5.880;2023-06-14T20:39:02;2.60;;;1.35;;
55710;SDS011;41612;51.994;5.880;2023-06-14T20:41:28;2.33;;;1.33;;
55710;SDS011;41612;51.994;5.880;2023-06-14T20:43:53;2.08;;;1.40;;
55710;SDS011;41612;51.994;5.880;2023-06-14T20:46:22;2.13;;;1.30;;
55710;SDS011;41612;51.994;5.880;2023-06-14T20:48:53;2.22;;;1.40;;
55710;SDS011;41612;51.994;5.880;2023-06-14T20:51:20;2.33;;;1.42;;
55710;SDS011;41612;51.994;5.880;2023-06-14T20:53:46;2.05;;;1.17;;
55710;SDS011;41612;51.994;5.880;2023-06-14T20:56:12;2.55;;;1.60;;
55710;SDS011;41612;51.994;5.880;2023-06-14T20:58:38;4.03;;;1.35;;
55710;SDS011;41612;51.994;5.880;2023-06-14T21:01:04;2.65;;;1.15;;
55710;SDS011;41612;51.994;5.880;2023-06-14T21:03:30;2.47;;;1.33;;
55710;SDS011;41612;51.994;5.880;2023-06-14T21:05:55;2.25;;;1.23;;
55710;SDS011;41612;51.994;5.880;2023-06-14T21:08:24;1.88;;;1.27;;
55710;SDS011;41612;51.994;5.880;2023-06-14T21:10:53;1.95;;;1.20;;
55710;SDS011;41612;51.994;5.880;2023-06-14T21:13:24;1.67;;;1.08;;
55710;SDS011;41612;51.994;5.880;2023-06-14T21:15:49;2.97;;;1.40;;
55710;SDS011;41612;51.994;5.880;2023-06-14T21:18:16;1.92;;;1.20;;
55710;SDS011;41612;51.994;5.880;2023-06-14T21:20:42;2.22;;;1.30;;
55710;SDS011;41612;51.994;5.880;2023-06-14T21:23:08;2.50;;;1.42;;
55710;SDS011;41612;51.994;5.880;2023-06-14T21:25:35;2.25;;;1.17;;
55710;SDS011;41612;51.994;5.880;2023-06-14T21:28:01;3.22;;;1.25;;
55710;SDS011;41612;51.994;5.880;2023-06-14T21:30:30;2.60;;;1.15;;
55710;SDS011;41612;51.994;5.880;2023-06-14T21:32:58;2.22;;;1.40;;
55710;SDS011;41612;51.994;5.880;2023-06-14T21:35:24;2.03;;;1.15;;
55710;SDS011;41612;51.994;5.880;2023-06-14T21:37:49;2.28;;;1.00;;
55710;SDS011;41612;51.994;5.880;2023-06-14T21:40:15;2.00;;;1.10;;
55710;SDS011;41612;51.994;5.880;2023-06-14T21:42:43;1.88;;;1.17;;
55710;SDS011;41612;51.994;5.880;2023-06-14T21:45:09;2.42;;;1.42;;
55710;SDS011;41612;51.994;5.880;2023-06-14T21:47:36;2.95;;;1.20;;
55710;SDS011;41612;51.994;5.880;2023-06-14T21:50:02;2.13;;;1.23;;
55710;SDS011;41612;51.994;5.880;2023-06-14T21:52:31;3.03;;;1.45;;
55710;SDS011;41612;51.994;5.880;2023-06-14T21:54:59;2.80;;;1.42;;
55710;SDS011;41612;51.994;5.880;2023-06-14T21:57:25;2.88;;;1.40;;
55710;SDS011;41612;51.994;5.880;2023-06-14T21:59:51;3.47;;;1.65;;
55710;SDS011;41612;51.994;5.880;2023-06-14T22:02:18;2.67;;;1.35;;
55710;SDS011;41612;51.994;5.880;2023-06-14T22:04:44;2.00;;;1.40;;
55710;SDS011;41612;51.994;5.880;2023-06-14T22:07:10;2.22;;;1.48;;
55710;SDS011;41612;51.994;5.880;2023-06-14T22:09:44;1.92;;;1.20;;
55710;SDS011;41612;51.994;5.880;2023-06-14T22:12:12;2.10;;;1.45;;
55710;SDS011;41612;51.994;5.880;2023-06-14T22:14:42;3.85;;;1.40;;
55710;SDS011;41612;51.994;5.880;2023-06-14T22:17:12;2.20;;;1.38;;
55710;SDS011;41612;51.994;5.880;2023-06-14T22:19:43;2.38;;;1.48;;
55710;SDS011;41612;51.994;5.880;2023-06-14T22:22:12;1.95;;;1.40;;
55710;SDS011;41612;51.994;5.880;2023-06-14T22:24:38;2.65;;;1.40;;
55710;SDS011;41612;51.994;5.880;2023-06-14T22:27:05;2.65;;;1.30;;
55710;SDS011;41612;51.994;5.880;2023-06-14T22:29:34;2.92;;;1.58;;
55710;SDS011;41612;51.994;5.880;2023-06-14T22:31:59;4.20;;;1.30;;
55710;SDS011;41612;51.994;5.880;2023-06-14T22:34:25;1.98;;;1.30;;
55710;SDS011;41612;51.994;5.880;2023-06-14T22:36:51;2.05;;;1.33;;
55710;SDS011;41612;51.994;5.880;2023-06-14T22:39:18;2.42;;;1.42;;
55710;SDS011;41612;51.994;5.880;2023-06-14T22:41:44;3.83;;;1.48;;
55710;SDS011;41612;51.994;5.880;2023-06-14T22:44:12;2.10;;;1.33;;
55710;SDS011;41612;51.994;5.880;2023-06-14T22:46:42;1.98;;;1.15;;
55710;SDS011;41612;51.994;5.880;2023-06-14T22:49:08;2.92;;;1.40;;
55710;SDS011;41612;51.994;5.880;2023-06-14T22:51:35;2.63;;;1.52;;
55710;SDS011;41612;51.994;5.880;2023-06-14T22:54:01;2.63;;;1.25;;
55710;SDS011;41612;51.994;5.880;2023-06-14T22:56:27;2.85;;;1.45;;
55710;SDS011;41612;51.994;5.880;2023-06-14T22:58:52;3.28;;;1.60;;
55710;SDS011;41612;51.994;5.880;2023-06-14T23:01:18;1.92;;;1.15;;
55710;SDS011;41612;51.994;5.880;2023-06-14T23:03:45;2.40;;;1.67;;
55710;SDS011;41612;51.994;5.880;2023-06-14T23:06:12;2.28;;;1.60;;
55710;SDS011;41612;51.994;5.880;2023-06-14T23:08:45;2.72;;;1.40;;
55710;SDS011;41612;51.994;5.880;2023-06-14T23:11:15;2.38;;;1.60;;
55710;SDS011;41612;51.994;5.880;2023-06-14T23:13:42;2.83;;;1.77;;
55710;SDS011;41612;51.994;5.880;2023-06-14T23:16:13;2.10;;;1.13;;
55710;SDS011;41612;51.994;5.880;2023-06-14T23:18:39;2.47;;;1.60;;
55710;SDS011;41612;51.994;5.880;2023-06-14T23:21:05;2.50;;;1.50;;
55710;SDS011;41612;51.994;5.880;2023-06-14T23:23:32;2.40;;;1.50;;
55710;SDS011;41612;51.994;5.880;2023-06-14T23:26:01;4.20;;;1.63;;
55710;SDS011;41612;51.994;5.880;2023-06-14T23:28:27;2.85;;;1.50;;
55710;SDS011;41612;51.994;5.880;2023-06-14T23:31:01;3.03;;;1.38;;
55710;SDS011;41612;51.994;5.880;2023-06-14T23:33:30;2.15;;;1.35;;
55710;SDS011;41612;51.994;5.880;2023-06-14T23:35:56;2.90;;;1.60;;
55710;SDS011;41612;51.994;5.880;2023-06-14T23:38:26;5.70;;;1.80;;
55710;SDS011;41612;51.994;5.880;2023-06-14T23:40:55;2.40;;;1.60;;
55710;SDS011;41612;51.994;5.880;2023-06-14T23:43:23;2.17;;;1.33;;
55710;SDS011;41612;51.994;5.880;2023-06-14T23:45:50;3.00;;;2.00;;
55710;SDS011;41612;51.994;5.880;2023-06-14T23:48:18;3.28;;;2.00;;
55710;SDS011;41612;51.994;5.880;2023-06-14T23:50:45;3.25;;;1.75;;
55710;SDS011;41612;51.994;5.880;2023-06-14T23:53:12;2.28;;;1.40;;
55710;SDS011;41612;51.994;5.880;2023-06-14T23:55:38;2.40;;;1.70;;
55710;SDS011;41612;51.994;5.880;2023-06-14T23:58:05;4.20;;;1.80;;
